sensor_id;sensor_type;location;lat;lon;timestamp;P1;durP1;ratioP1;P2;durP2;ratioP2
16760;SDS011;8498;52.516;13.790;2022-12-18T00:03:02;53.60;;;14.03;;
16760;SDS011;8498;52.516;13.790;2022-12-18T00:08:25;46.50;;;12.93;;
16760;SDS011;8498;52.516;13.790;2022-12-18T00:13:48;42.80;;;12.37;;
16760;SDS011;8498;52.516;13.790;2022-12-18T00:19:11;45.90;;;12.47;;
16760;SDS011;8498;52.516;13.790;2022-12-18T00:24:33;47.63;;;11.77;;
16760;SDS011;8498;52.516;13.790;2022-12-18T00:29:56;30.27;;;9.90;;
16760;SDS011;8498;52.516;13.790;2022-12-18T00:35:18;30.00;;;10.43;;
16760;SDS011;8498;52.516;13.790;2022-12-18T00:40:41;34.77;;;11.33;;
16760;SDS011;8498;52.516;13.790;2022-12-18T00:46:03;27.03;;;9.33;;
16760;SDS011;8498;52.516;13.790;2022-12-18T00:51:26;35.13;;;10.27;;
16760;SDS011;8498;52.516;13.790;2022-12-18T00:56:49;27.07;;;8.80;;
16760;SDS011;8498;52.516;13.790;2022-12-18T01:02:14;29.40;;;9.03;;
16760;SDS011;8498;52.516;13.790;2022-12-18T01:07:37;30.30;;;10.27;;
16760;SDS011;8498;52.516;13.790;2022-12-18T01:13:00;23.57;;;8.50;;
16760;SDS011;8498;52.516;13.790;2022-12-18T01:18:23;22.50;;;8.90;;
16760;SDS011;8498;52.516;13.790;2022-12-18T01:23:45;36.03;;;9.30;;
16760;SDS011;8498;52.516;13.790;2022-12-18T01:29:08;27.97;;;8.33;;
16760;SDS011;8498;52.516;13.790;2022-12-18T01:34:31;30.67;;;10.30;;
16760;SDS011;8498;52.516;13.790;2022-12-18T01:39:53;32.53;;;7.80;;
16760;SDS011;8498;52.516;13.790;2022-12-18T01:45:24;29.63;;;8.73;;
16760;SDS011;8498;52.516;13.790;2022-12-18T01:50:49;26.77;;;8.77;;
16760;SDS011;8498;52.516;13.790;2022-12-18T01:56:13;22.53;;;9.73;;
16760;SDS011;8498;52.516;13.790;2022-12-18T02:01:37;27.73;;;8.53;;
16760;SDS011;8498;52.516;13.790;2022-12-18T02:07:45;28.20;;;10.57;;
16760;SDS011;8498;52.516;13.790;2022-12-18T02:13:46;26.33;;;8.97;;
16760;SDS011;8498;52.516;13.790;2022-12-18T02:18:58;19.80;;;8.40;;
16760;SDS011;8498;52.516;13.790;2022-12-18T02:24:30;24.57;;;7.70;;
16760;SDS011;8498;52.516;13.790;2022-12-18T02:30:01;34.33;;;9.33;;
16760;SDS011;8498;52.516;13.790;2022-12-18T02:35:27;17.40;;;7.03;;
16760;SDS011;8498;52.516;13.790;2022-12-18T02:40:54;27.30;;;7.60;;
16760;SDS011;8498;52.516;13.790;2022-12-18T02:46:37;19.50;;;8.23;;
16760;SDS011;8498;52.516;13.790;2022-12-18T03:03:42;27.77;;;10.03;;
16760;SDS011;8498;52.516;13.790;2022-12-18T03:09:21;26.03;;;9.37;;
16760;SDS011;8498;52.516;13.790;2022-12-18T03:20:39;28.43;;;10.90;;
16760;SDS011;8498;52.516;13.790;2022-12-18T03:26:09;23.20;;;9.00;;
16760;SDS011;8498;52.516;13.790;2022-12-18T03:31:35;31.10;;;9.03;;
16760;SDS011;8498;52.516;13.790;2022-12-18T03:37:01;23.13;;;8.50;;
16760;SDS011;8498;52.516;13.790;2022-12-18T03:42:32;23.10;;;9.00;;
16760;SDS011;8498;52.516;13.790;2022-12-18T03:54:14;29.37;;;9.43;;
16760;SDS011;8498;52.516;13.790;2022-12-18T03:59:47;26.90;;;9.17;;
16760;SDS011;8498;52.516;13.790;2022-12-18T04:05:17;32.50;;;9.33;;
16760;SDS011;8498;52.516;13.790;2022-12-18T04:10:41;31.07;;;8.83;;
16760;SDS011;8498;52.516;13.790;2022-12-18T04:16:04;22.23;;;7.93;;
16760;SDS011;8498;52.516;13.790;2022-12-18T04:21:27;20.80;;;8.07;;
16760;SDS011;8498;52.516;13.790;2022-12-18T04:26:50;22.37;;;8.10;;
16760;SDS011;8498;52.516;13.790;2022-12-18T04:32:17;33.70;;;8.50;;
16760;SDS011;8498;52.516;13.790;2022-12-18T04:37:41;26.93;;;8.23;;
16760;SDS011;8498;52.516;13.790;2022-12-18T04:43:04;23.20;;;8.57;;
16760;SDS011;8498;52.516;13.790;2022-12-18T04:48:27;23.27;;;6.90;;
16760;SDS011;8498;52.516;13.790;2022-12-18T04:53:50;23.43;;;9.13;;
16760;SDS011;8498;52.516;13.790;2022-12-18T04:59:12;18.13;;;8.33;;
16760;SDS011;8498;52.516;13.790;2022-12-18T05:04:35;23.97;;;8.27;;
16760;SDS011;8498;52.516;13.790;2022-12-18T05:09:57;19.73;;;7.30;;
16760;SDS011;8498;52.516;13.790;2022-12-18T05:15:19;29.50;;;9.30;;
16760;SDS011;8498;52.516;13.790;2022-12-18T05:20:41;20.30;;;8.10;;
16760;SDS011;8498;52.516;13.790;2022-12-18T05:26:04;19.63;;;7.33;;
16760;SDS011;8498;52.516;13.790;2022-12-18T05:31:28;19.50;;;8.87;;
16760;SDS011;8498;52.516;13.790;2022-12-18T05:36:55;18.73;;;8.33;;
16760;SDS011;8498;52.516;13.790;2022-12-18T05:42:17;22.17;;;8.30;;
16760;SDS011;8498;52.516;13.790;2022-12-18T05:47:40;23.47;;;8.20;;
16760;SDS011;8498;52.516;13.790;2022-12-18T05:53:03;18.80;;;7.60;;
16760;SDS011;8498;52.516;13.790;2022-12-18T05:58:25;21.60;;;7.87;;
16760;SDS011;8498;52.516;13.790;2022-12-18T06:03:48;23.37;;;8.23;;
16760;SDS011;8498;52.516;13.790;2022-12-18T06:09:11;22.77;;;7.50;;
16760;SDS011;8498;52.516;13.790;2022-12-18T06:14:33;23.27;;;8.47;;
16760;SDS011;8498;52.516;13.790;2022-12-18T06:19:56;22.40;;;6.77;;
16760;SDS011;8498;52.516;13.790;2022-12-18T06:25:19;22.27;;;7.77;;
16760;SDS011;8498;52.516;13.790;2022-12-18T06:30:45;15.20;;;6.40;;
16760;SDS011;8498;52.516;13.790;2022-12-18T06:36:10;24.83;;;7.70;;
16760;SDS011;8498;52.516;13.790;2022-12-18T06:41:33;18.43;;;6.50;;
16760;SDS011;8498;52.516;13.790;2022-12-18T06:46:55;26.40;;;9.97;;
16760;SDS011;8498;52.516;13.790;2022-12-18T06:52:18;35.93;;;9.13;;
16760;SDS011;8498;52.516;13.790;2022-12-18T06:57:40;25.23;;;8.27;;
16760;SDS011;8498;52.516;13.790;2022-12-18T07:03:03;19.23;;;8.10;;
16760;SDS011;8498;52.516;13.790;2022-12-18T07:08:25;21.90;;;8.27;;
16760;SDS011;8498;52.516;13.790;2022-12-18T07:13:48;20.00;;;8.03;;
16760;SDS011;8498;52.516;13.790;2022-12-18T07:19:10;22.93;;;8.10;;
16760;SDS011;8498;52.516;13.790;2022-12-18T07:24:32;24.33;;;9.30;;
16760;SDS011;8498;52.516;13.790;2022-12-18T07:29:56;22.40;;;7.47;;
16760;SDS011;8498;52.516;13.790;2022-12-18T07:35:19;25.77;;;8.07;;
16760;SDS011;8498;52.516;13.790;2022-12-18T07:40:46;24.90;;;8.37;;
16760;SDS011;8498;52.516;13.790;2022-12-18T07:46:09;29.40;;;9.90;;
16760;SDS011;8498;52.516;13.790;2022-12-18T07:51:34;27.87;;;10.30;;
16760;SDS011;8498;52.516;13.790;2022-12-18T07:56:56;27.43;;;7.90;;
16760;SDS011;8498;52.516;13.790;2022-12-18T08:02:18;26.97;;;7.53;;
16760;SDS011;8498;52.516;13.790;2022-12-18T08:07:42;32.67;;;10.10;;
16760;SDS011;8498;52.516;13.790;2022-12-18T08:13:04;30.23;;;9.37;;
16760;SDS011;8498;52.516;13.790;2022-12-18T08:18:27;33.23;;;10.20;;
16760;SDS011;8498;52.516;13.790;2022-12-18T08:23:50;31.60;;;9.10;;
16760;SDS011;8498;52.516;13.790;2022-12-18T08:29:13;28.87;;;10.10;;
16760;SDS011;8498;52.516;13.790;2022-12-18T08:34:42;29.33;;;9.07;;
16760;SDS011;8498;52.516;13.790;2022-12-18T08:40:04;39.60;;;10.63;;
16760;SDS011;8498;52.516;13.790;2022-12-18T08:45:27;39.33;;;9.90;;
16760;SDS011;8498;52.516;13.790;2022-12-18T08:50:53;36.77;;;10.70;;
16760;SDS011;8498;52.516;13.790;2022-12-18T08:56:20;41.67;;;10.23;;
16760;SDS011;8498;52.516;13.790;2022-12-18T09:01:42;39.07;;;10.30;;
16760;SDS011;8498;52.516;13.790;2022-12-18T09:07:05;33.23;;;9.17;;
16760;SDS011;8498;52.516;13.790;2022-12-18T09:12:28;34.23;;;9.33;;
16760;SDS011;8498;52.516;13.790;2022-12-18T09:17:50;37.00;;;9.80;;
16760;SDS011;8498;52.516;13.790;2022-12-18T09:23:14;36.40;;;8.90;;
16760;SDS011;8498;52.516;13.790;2022-12-18T09:28:36;30.23;;;9.17;;
16760;SDS011;8498;52.516;13.790;2022-12-18T09:34:00;29.33;;;9.40;;
16760;SDS011;8498;52.516;13.790;2022-12-18T09:39:22;27.27;;;9.03;;
16760;SDS011;8498;52.516;13.790;2022-12-18T09:44:45;29.23;;;8.73;;
16760;SDS011;8498;52.516;13.790;2022-12-18T09:55:44;31.27;;;10.30;;
16760;SDS011;8498;52.516;13.790;2022-12-18T10:01:12;42.63;;;10.83;;
16760;SDS011;8498;52.516;13.790;2022-12-18T10:06:41;28.00;;;8.97;;
16760;SDS011;8498;52.516;13.790;2022-12-18T10:30:04;32.03;;;9.13;;
16760;SDS011;8498;52.516;13.790;2022-12-18T10:35:34;27.07;;;8.43;;
16760;SDS011;8498;52.516;13.790;2022-12-18T10:40:59;32.80;;;9.57;;
16760;SDS011;8498;52.516;13.790;2022-12-18T10:46:27;28.43;;;9.67;;
16760;SDS011;8498;52.516;13.790;2022-12-18T10:51:50;33.77;;;9.43;;
16760;SDS011;8498;52.516;13.790;2022-12-18T10:57:17;27.37;;;9.13;;
16760;SDS011;8498;52.516;13.790;2022-12-18T11:02:52;26.10;;;8.67;;
16760;SDS011;8498;52.516;13.790;2022-12-18T11:08:20;23.70;;;8.87;;
16760;SDS011;8498;52.516;13.790;2022-12-18T11:13:57;28.20;;;9.87;;
16760;SDS011;8498;52.516;13.790;2022-12-18T11:24:52;29.60;;;9.03;;
16760;SDS011;8498;52.516;13.790;2022-12-18T11:30:38;23.67;;;9.60;;
16760;SDS011;8498;52.516;13.790;2022-12-18T11:36:01;32.87;;;9.77;;
16760;SDS011;8498;52.516;13.790;2022-12-18T11:41:34;32.10;;;10.73;;
16760;SDS011;8498;52.516;13.790;2022-12-18T11:47:31;28.17;;;9.33;;
16760;SDS011;8498;52.516;13.790;2022-12-18T11:53:10;24.93;;;8.97;;
16760;SDS011;8498;52.516;13.790;2022-12-18T12:10:07;30.07;;;9.67;;
16760;SDS011;8498;52.516;13.790;2022-12-18T12:21:31;28.03;;;9.30;;
16760;SDS011;8498;52.516;13.790;2022-12-18T12:27:22;26.07;;;10.23;;
16760;SDS011;8498;52.516;13.790;2022-12-18T12:38:28;25.00;;;9.33;;
16760;SDS011;8498;52.516;13.790;2022-12-18T12:44:00;37.70;;;10.80;;
16760;SDS011;8498;52.516;13.790;2022-12-18T12:49:27;38.03;;;9.50;;
16760;SDS011;8498;52.516;13.790;2022-12-18T12:54:59;33.87;;;9.23;;
16760;SDS011;8498;52.516;13.790;2022-12-18T13:00:36;27.00;;;8.80;;
16760;SDS011;8498;52.516;13.790;2022-12-18T13:06:23;25.17;;;9.20;;
16760;SDS011;8498;52.516;13.790;2022-12-18T13:12:10;31.83;;;8.93;;
16760;SDS011;8498;52.516;13.790;2022-12-18T13:23:35;29.77;;;10.33;;
16760;SDS011;8498;52.516;13.790;2022-12-18T13:28:59;28.33;;;10.03;;
16760;SDS011;8498;52.516;13.790;2022-12-18T13:34:27;27.47;;;9.87;;
16760;SDS011;8498;52.516;13.790;2022-12-18T13:39:54;32.23;;;10.43;;
16760;SDS011;8498;52.516;13.790;2022-12-18T13:51:04;38.33;;;10.97;;
16760;SDS011;8498;52.516;13.790;2022-12-18T13:56:30;22.97;;;8.70;;
16760;SDS011;8498;52.516;13.790;2022-12-18T14:01:55;34.70;;;9.97;;
16760;SDS011;8498;52.516;13.790;2022-12-18T14:07:19;35.23;;;11.07;;
16760;SDS011;8498;52.516;13.790;2022-12-18T14:12:50;25.90;;;9.80;;
16760;SDS011;8498;52.516;13.790;2022-12-18T14:29:30;78.13;;;14.30;;
16760;SDS011;8498;52.516;13.790;2022-12-18T14:34:53;26.40;;;9.07;;
16760;SDS011;8498;52.516;13.790;2022-12-18T14:40:17;26.37;;;9.30;;
16760;SDS011;8498;52.516;13.790;2022-12-18T14:51:27;23.60;;;9.77;;
16760;SDS011;8498;52.516;13.790;2022-12-18T14:56:50;26.40;;;10.33;;
16760;SDS011;8498;52.516;13.790;2022-12-18T15:02:25;36.43;;;9.93;;
16760;SDS011;8498;52.516;13.790;2022-12-18T15:07:51;31.03;;;10.40;;
16760;SDS011;8498;52.516;13.790;2022-12-18T15:13:20;23.83;;;9.17;;
16760;SDS011;8498;52.516;13.790;2022-12-18T15:18:46;24.37;;;9.77;;
16760;SDS011;8498;52.516;13.790;2022-12-18T15:24:20;28.67;;;9.10;;
16760;SDS011;8498;52.516;13.790;2022-12-18T15:35:29;21.93;;;9.87;;
16760;SDS011;8498;52.516;13.790;2022-12-18T15:40:53;26.47;;;8.83;;
16760;SDS011;8498;52.516;13.790;2022-12-18T15:46:16;34.40;;;10.67;;
16760;SDS011;8498;52.516;13.790;2022-12-18T15:51:39;24.87;;;8.70;;
16760;SDS011;8498;52.516;13.790;2022-12-18T15:57:02;25.60;;;10.50;;
16760;SDS011;8498;52.516;13.790;2022-12-18T16:02:43;23.07;;;8.60;;
16760;SDS011;8498;52.516;13.790;2022-12-18T16:08:06;24.07;;;9.70;;
16760;SDS011;8498;52.516;13.790;2022-12-18T16:13:28;24.03;;;9.60;;
16760;SDS011;8498;52.516;13.790;2022-12-18T16:18:51;20.27;;;8.13;;
16760;SDS011;8498;52.516;13.790;2022-12-18T16:24:14;24.23;;;8.70;;
16760;SDS011;8498;52.516;13.790;2022-12-18T16:29:38;27.63;;;9.47;;
16760;SDS011;8498;52.516;13.790;2022-12-18T16:35:00;28.30;;;10.37;;
16760;SDS011;8498;52.516;13.790;2022-12-18T16:40:23;21.87;;;9.53;;
16760;SDS011;8498;52.516;13.790;2022-12-18T16:45:45;22.23;;;9.77;;
16760;SDS011;8498;52.516;13.790;2022-12-18T16:51:07;27.07;;;9.53;;
16760;SDS011;8498;52.516;13.790;2022-12-18T16:56:30;23.97;;;10.10;;
16760;SDS011;8498;52.516;13.790;2022-12-18T17:01:53;27.77;;;9.77;;
16760;SDS011;8498;52.516;13.790;2022-12-18T17:07:16;32.40;;;11.50;;
16760;SDS011;8498;52.516;13.790;2022-12-18T17:12:39;30.10;;;11.47;;
16760;SDS011;8498;52.516;13.790;2022-12-18T17:18:01;29.47;;;10.67;;
16760;SDS011;8498;52.516;13.790;2022-12-18T17:23:24;28.47;;;11.00;;
16760;SDS011;8498;52.516;13.790;2022-12-18T17:28:47;30.00;;;10.60;;
16760;SDS011;8498;52.516;13.790;2022-12-18T17:34:10;23.73;;;10.20;;
16760;SDS011;8498;52.516;13.790;2022-12-18T17:39:32;37.10;;;12.03;;
16760;SDS011;8498;52.516;13.790;2022-12-18T17:44:55;28.20;;;10.77;;
16760;SDS011;8498;52.516;13.790;2022-12-18T17:50:17;37.37;;;12.30;;
16760;SDS011;8498;52.516;13.790;2022-12-18T17:55:40;50.27;;;13.00;;
16760;SDS011;8498;52.516;13.790;2022-12-18T18:01:02;31.80;;;12.57;;
16760;SDS011;8498;52.516;13.790;2022-12-18T18:06:25;41.00;;;11.00;;
16760;SDS011;8498;52.516;13.790;2022-12-18T18:11:47;36.30;;;12.00;;
16760;SDS011;8498;52.516;13.790;2022-12-18T18:17:28;37.50;;;10.93;;
16760;SDS011;8498;52.516;13.790;2022-12-18T18:22:51;41.20;;;12.33;;
16760;SDS011;8498;52.516;13.790;2022-12-18T18:28:14;41.50;;;11.20;;
16760;SDS011;8498;52.516;13.790;2022-12-18T18:33:36;44.27;;;13.83;;
16760;SDS011;8498;52.516;13.790;2022-12-18T18:38:59;42.13;;;12.27;;
16760;SDS011;8498;52.516;13.790;2022-12-18T18:44:22;32.67;;;13.30;;
16760;SDS011;8498;52.516;13.790;2022-12-18T18:49:47;40.10;;;12.60;;
16760;SDS011;8498;52.516;13.790;2022-12-18T18:55:09;34.87;;;13.50;;
16760;SDS011;8498;52.516;13.790;2022-12-18T19:00:39;40.63;;;14.07;;
16760;SDS011;8498;52.516;13.790;2022-12-18T19:06:02;43.80;;;14.17;;
16760;SDS011;8498;52.516;13.790;2022-12-18T19:11:26;35.10;;;14.27;;
16760;SDS011;8498;52.516;13.790;2022-12-18T19:17:07;30.73;;;10.53;;
16760;SDS011;8498;52.516;13.790;2022-12-18T19:22:31;34.10;;;11.80;;
16760;SDS011;8498;52.516;13.790;2022-12-18T19:27:53;37.70;;;12.27;;
16760;SDS011;8498;52.516;13.790;2022-12-18T19:33:16;33.73;;;11.00;;
16760;SDS011;8498;52.516;13.790;2022-12-18T19:38:59;36.13;;;12.67;;
16760;SDS011;8498;52.516;13.790;2022-12-18T19:44:22;31.57;;;12.03;;
16760;SDS011;8498;52.516;13.790;2022-12-18T19:49:45;39.23;;;12.00;;
16760;SDS011;8498;52.516;13.790;2022-12-18T19:55:07;39.57;;;13.40;;
16760;SDS011;8498;52.516;13.790;2022-12-18T20:00:30;30.53;;;11.90;;
16760;SDS011;8498;52.516;13.790;2022-12-18T20:05:52;39.43;;;13.60;;
16760;SDS011;8498;52.516;13.790;2022-12-18T20:11:15;34.93;;;13.60;;
16760;SDS011;8498;52.516;13.790;2022-12-18T20:16:37;35.40;;;12.37;;
16760;SDS011;8498;52.516;13.790;2022-12-18T20:22:01;33.40;;;12.43;;
16760;SDS011;8498;52.516;13.790;2022-12-18T20:27:23;36.70;;;12.73;;
16760;SDS011;8498;52.516;13.790;2022-12-18T20:32:46;40.23;;;12.20;;
16760;SDS011;8498;52.516;13.790;2022-12-18T20:38:08;39.07;;;12.20;;
16760;SDS011;8498;52.516;13.790;2022-12-18T20:43:33;39.97;;;13.33;;
16760;SDS011;8498;52.516;13.790;2022-12-18T20:48:55;41.30;;;13.20;;
16760;SDS011;8498;52.516;13.790;2022-12-18T20:54:18;30.20;;;11.67;;
16760;SDS011;8498;52.516;13.790;2022-12-18T20:59:42;33.27;;;11.70;;
16760;SDS011;8498;52.516;13.790;2022-12-18T21:05:09;43.73;;;13.00;;
16760;SDS011;8498;52.516;13.790;2022-12-18T21:10:31;43.13;;;12.47;;
16760;SDS011;8498;52.516;13.790;2022-12-18T21:15:54;42.37;;;13.23;;
16760;SDS011;8498;52.516;13.790;2022-12-18T21:21:16;28.93;;;12.07;;
16760;SDS011;8498;52.516;13.790;2022-12-18T21:26:47;37.20;;;13.17;;
16760;SDS011;8498;52.516;13.790;2022-12-18T21:32:11;33.97;;;12.83;;
16760;SDS011;8498;52.516;13.790;2022-12-18T21:37:34;34.73;;;13.33;;
16760;SDS011;8498;52.516;13.790;2022-12-18T21:42:57;38.07;;;12.23;;
16760;SDS011;8498;52.516;13.790;2022-12-18T21:48:38;38.27;;;13.10;;
16760;SDS011;8498;52.516;13.790;2022-12-18T21:54:01;29.67;;;12.00;;
16760;SDS011;8498;52.516;13.790;2022-12-18T21:59:28;42.37;;;13.90;;
16760;SDS011;8498;52.516;13.790;2022-12-18T22:04:55;39.37;;;13.17;;
16760;SDS011;8498;52.516;13.790;2022-12-18T22:10:18;35.73;;;13.47;;
16760;SDS011;8498;52.516;13.790;2022-12-18T22:15:40;41.10;;;14.23;;
16760;SDS011;8498;52.516;13.790;2022-12-18T22:21:03;51.47;;;15.43;;
16760;SDS011;8498;52.516;13.790;2022-12-18T22:26:27;39.83;;;13.43;;
16760;SDS011;8498;52.516;13.790;2022-12-18T22:31:58;47.53;;;14.17;;
16760;SDS011;8498;52.516;13.790;2022-12-18T22:37:21;45.47;;;15.80;;
16760;SDS011;8498;52.516;13.790;2022-12-18T22:42:43;41.20;;;13.60;;
16760;SDS011;8498;52.516;13.790;2022-12-18T22:48:05;45.53;;;14.37;;
16760;SDS011;8498;52.516;13.790;2022-12-18T22:53:28;45.67;;;14.63;;
16760;SDS011;8498;52.516;13.790;2022-12-18T22:58:50;46.17;;;13.93;;
16760;SDS011;8498;52.516;13.790;2022-12-18T23:04:12;42.00;;;13.20;;
16760;SDS011;8498;52.516;13.790;2022-12-18T23:09:35;44.73;;;14.70;;
16760;SDS011;8498;52.516;13.790;2022-12-18T23:14:57;42.30;;;14.90;;
16760;SDS011;8498;52.516;13.790;2022-12-18T23:20:19;41.97;;;13.27;;
16760;SDS011;8498;52.516;13.790;2022-12-18T23:25:42;46.47;;;14.23;;
16760;SDS011;8498;52.516;13.790;2022-12-18T23:31:05;43.87;;;13.77;;
16760;SDS011;8498;52.516;13.790;2022-12-18T23:36:29;46.87;;;14.13;;
16760;SDS011;8498;52.516;13.790;2022-12-18T23:42:01;45.40;;;13.80;;
16760;SDS011;8498;52.516;13.790;2022-12-18T23:47:24;47.83;;;14.17;;
16760;SDS011;8498;52.516;13.790;2022-12-18T23:52:46;40.07;;;12.13;;
16760;SDS011;8498;52.516;13.790;2022-12-18T23:58:13;39.00;;;13.63;;
